Flight Track Log - Related Links

Times and Time Zones

All times are in EDT time to prevent confusion due to time zone crossing. See the AWE335 flight status page for this flight to view local times or setup timezone preferences in your user account.

Time Position Orientation Groundspeed Altitude Reporting Facility
EDT Latitude Longitude Course Direction KTS MPH feet Rate Location/Type
Fri 04:18:00 PM 23.4405 -110.0738 317° Northwest  Level FlightAware Approximate
Fri 04:19:00 PM 23.5234 -110.1568 317° Northwest  Level FlightAware Approximate
Fri 04:20:00 PM 23.6288 -110.1957 344° North  Level FlightAware Approximate
Fri 04:21:00 PM 23.7372 -110.2286 344° North  Level FlightAware Approximate
Fri 04:22:00 PM 23.8456 -110.2617 344° North  Level FlightAware Approximate
Fri 04:23:00 PM 23.9547 -110.2918 349° North  Level FlightAware Approximate
Fri 04:24:00 PM 24.0650 -110.3163 349° North  Level FlightAware Approximate
Fri 04:25:00 PM 24.1745 -110.3435 351° North  Level FlightAware Approximate
Fri 04:26:00 PM 24.2856 -110.3631 351° North  Level FlightAware Approximate
Fri 04:27:00 PM 24.3967 -110.3828 351° North  Level FlightAware Approximate
Fri 04:28:00 PM 24.5078 -110.4023 351° North  Level FlightAware Approximate
Fri 04:29:00 PM 24.6189 -110.4220 351° North  Level FlightAware Approximate
Fri 04:30:00 PM 24.7303 -110.4400 353° North  Level FlightAware Approximate
Fri 04:31:00 PM 24.8419 -110.4560 353° North  Level FlightAware Approximate
Fri 04:32:00 PM 24.9535 -110.4719 353° North  Level FlightAware Approximate
Fri 04:33:00 PM 25.0651 -110.4876 353° North  Level FlightAware Approximate
Fri 04:34:00 PM 25.1769 -110.5025 353° North  Level FlightAware Approximate
Fri 04:35:00 PM 25.2886 -110.5177 350° North  Level FlightAware Approximate
Fri 04:36:00 PM 25.3998 -110.5333 North  Level FlightAware Approximate
Fri 04:37:00 PM 25.5109 -110.5535 351° North  Level FlightAware Approximate
Fri 04:38:00 PM 25.6222 -110.5721 353° North  Level FlightAware Approximate
Fri 04:39:00 PM 25.7338 -110.5876 353° North  Level FlightAware Approximate
Fri 04:40:00 PM 25.8455 -110.6032 353° North  Level FlightAware Approximate
Fri 04:41:00 PM 25.9571 -110.6189 353° North  Level FlightAware Approximate
Fri 04:42:00 PM 26.0688 -110.6345 353° North  Level FlightAware Approximate
Fri 04:43:00 PM 26.1805 -110.6502 353° North  Level FlightAware Approximate
Fri 04:44:00 PM 26.2921 -110.6659 353° North  Level FlightAware Approximate
Fri 04:45:00 PM 26.4038 -110.6817 353° North  Level FlightAware Approximate
Fri 04:46:00 PM 26.5154 -110.6975 353° North  Level FlightAware Approximate
Fri 04:47:00 PM 26.6269 -110.7149 352° North  Level FlightAware Approximate
Fri 04:48:00 PM 26.7383 -110.7327 352° North  Level FlightAware Approximate
Fri 04:49:00 PM 26.8497 -110.7506 352° North  Level FlightAware Approximate
Fri 04:50:00 PM 26.9611 -110.7684 352° North  Level FlightAware Approximate
Fri 04:51:00 PM 27.0725 -110.7863 352° North  Level FlightAware Approximate
Fri 04:52:00 PM 27.1839 -110.8043 352° North  Level FlightAware Approximate
Fri 04:53:00 PM 27.2953 -110.8223 352° North  Level FlightAware Approximate
Fri 04:54:00 PM 27.4067 -110.8403 352° North  Level FlightAware Approximate
Fri 04:55:00 PM 27.5183 -110.8571 353° North  Level FlightAware Approximate
Fri 04:56:00 PM 27.6300 -110.8725 353° North  Level FlightAware Approximate
Fri 04:57:00 PM 27.7417 -110.8879 353° North  Level FlightAware Approximate
Fri 04:58:00 PM 27.8534 -110.9033 353° North  Level FlightAware Approximate
Fri 04:59:00 PM 27.9652 -110.9182 355° North  Level FlightAware Approximate
Fri 05:00:00 PM 28.0773 -110.9296 355° North  Level FlightAware Approximate
Fri 05:01:00 PM 28.1894 -110.9411 355° North  Level FlightAware Approximate
Fri 05:02:00 PM 28.3015 -110.9526 355° North  Level FlightAware Approximate
Fri 05:03:00 PM 28.4135 -110.9641 355° North  Level FlightAware Approximate
Fri 05:04:00 PM 28.5256 -110.9756 355° North  Level FlightAware Approximate
Fri 05:05:00 PM 28.6377 -110.9872 355° North  Level FlightAware Approximate
Fri 05:06:00 PM 28.7498 -110.9987 355° North  Level FlightAware Approximate
Fri 05:07:00 PM 28.8619 -111.0103 355° North  Level FlightAware Approximate
Fri 05:08:00 PM 28.9739 -111.0220 355° North  Level FlightAware Approximate
Fri 05:09:00 PM 29.0860 -111.0332 North  Level FlightAware Approximate
Fri 05:10:00 PM 29.1985 -111.0283 North  Level FlightAware Approximate
Fri 05:11:00 PM 29.3110 -111.0233 North  Level FlightAware Approximate
Fri 05:12:00 PM 29.4234 -111.0184 North  Level FlightAware Approximate
Fri 05:13:00 PM 29.5359 -111.0134 North  Level FlightAware Approximate
Fri 05:14:00 PM 29.6483 -111.0085 North  Level FlightAware Approximate
Fri 05:15:00 PM 29.7608 -111.0035 North  Level FlightAware Approximate
Fri 05:16:00 PM 29.8733 -110.9985 North  Level FlightAware Approximate
Fri 05:17:00 PM 29.9857 -110.9935 North  Level FlightAware Approximate
Fri 05:18:00 PM 30.0982 -110.9884 North  Level FlightAware Approximate
Fri 05:19:00 PM 30.2106 -110.9834 North  Level FlightAware Approximate
Fri 05:20:00 PM 30.3231 -110.9784 North  Level FlightAware Approximate
Fri 05:21:00 PM 30.4356 -110.9733 North  Level FlightAware Approximate
Fri 05:22:00 PM 30.5480 -110.9683 North  Level FlightAware Approximate
Fri 05:23:00 PM 30.6605 -110.9647 North  Level FlightAware Approximate
Fri 05:23:15 PM 30.6086 -110.9839 North 456 525 38,000  Level Albuquerque Center
Fri 05:24:00 PM 30.7730 -110.9617 North  Level FlightAware Approximate
Fri 05:24:17 PM 30.7369 -110.9781 North 459 528 38,000  Level Albuquerque Center
Fri 05:25:00 PM 30.8855 -110.9587 North  Level FlightAware Approximate
Fri 05:25:19 PM 30.8633 -110.9728 North 457 526 37,900  Level Albuquerque Center
Fri 05:26:00 PM 30.9980 -110.9558 North  Level FlightAware Approximate
Fri 05:26:21 PM 30.9894 -110.9667 North 455 524 37,900  Level Albuquerque Center
Fri 05:27:00 PM 31.1105 -110.9528 North  Level FlightAware Approximate
Fri 05:27:22 PM 31.1144 -110.9603 North 454 522 35,900  Level Albuquerque Center
Fri 05:28:00 PM 31.2230 -110.9491 North  Level FlightAware Approximate
Fri 05:28:24 PM 31.2394 -110.9544 North 452 520 33,500  Level Albuquerque Center
Fri 05:29:26 PM 31.3897 -110.9444 North 452 520 31,900 -1,258 Descending Albuquerque Center
Fri 05:30:28 PM 31.5075 -110.9400 North 434 499 30,900 -1,597 Descending Albuquerque Center
Fri 05:31:30 PM 31.6283 -110.9356 North 420 483 28,600 -1,403 Descending Albuquerque Center
Fri 05:32:32 PM 31.7317 -110.9331 North 407 468 28,000 -293 Descending Albuquerque Center
Fri 05:33:33 PM 31.8439 -110.9286 North 405 466 28,000 -537 Level Albuquerque Center
Fri 05:34:35 PM 31.9628 -110.9233 North 400 460 26,900 -968 Descending Albuquerque Center
Fri 05:35:37 PM 32.0728 -110.9172 North 396 456 26,000 -1,161 Descending Albuquerque Center
Fri 05:36:39 PM 32.2053 -110.9439 350° North 404 465 24,500 -1,403 Descending Albuquerque Center
Fri 05:37:41 PM 32.3103 -110.9717 347° North 392 451 23,100 -1,355 Descending Albuquerque Center
Fri 05:38:43 PM 32.4131 -111.0000 347° North 383 441 21,700 -1,330 Descending Albuquerque Center
Fri 05:40:00 PM 32.5551 -111.0347 347° North  Level FlightAware Approximate
Fri 05:40:46 PM 32.6139 -111.0553 347° North 372 428 19,000  Level Albuquerque Center
Fri 05:41:48 PM 32.7117 -111.0842 346° North 365 420 17,700 -1,258 Descending Albuquerque Center
Fri 05:42:50 PM 32.8083 -111.1103 347° North 360 414 16,400 -1,355 Descending Albuquerque Center
Fri 05:43:52 PM 32.9011 -111.1819 327° Northwest 348 400 14,900 -1,366 Descending Albuquerque Center
Fri 05:44:53 PM 32.9461 -111.2817 298° West 342 394 13,600 -1,220 Descending Albuquerque Center
Fri 05:45:55 PM 32.9894 -111.3781 298° West 335 386 12,400 -1,113 Descending Albuquerque Center
Fri 05:46:57 PM 33.0328 -111.4647 301° West 312 359 11,300 -1,065 Descending Albuquerque Center
Fri 05:47:59 PM 33.0764 -111.5489 302° West 302 348 10,200 -1,415 Descending Albuquerque Center
Fri 05:49:00 PM 33.1464 -111.5989 329° Northwest 296 341 8,400 -1,073 Descending Albuquerque Center
Fri 05:50:02 PM 33.2186 -111.6378 336° Northwest 287 330 8,000 -677 Descending Albuquerque Center
Fri 05:51:04 PM 33.3047 -111.6856 335° Northwest 284 327 7,000 -1,258 Descending Albuquerque Center
Fri 05:52:06 PM 33.3753 -111.7250 335° Northwest 281 323 5,400 -1,561 Descending Albuquerque Center
Fri 05:53:07 PM 33.4142 -111.7981 303° West 264 304 3,800 -1,171 Descending Albuquerque Center
Fri 05:54:09 PM 33.4414 -111.8589 298° West 234 269 3,000 -774 Descending Albuquerque Center

Login

Don't have an account? Register now (free) for customized features, flight alerts, and more!